createdAt,value
2017-11-06T00:00:42.365Z,0
2017-11-06T00:01:44.077Z,0
2017-11-06T00:02:45.835Z,0
2017-11-06T00:03:47.582Z,0
2017-11-06T00:04:49.267Z,0
2017-11-06T00:05:50.919Z,0
2017-11-06T00:06:52.587Z,0
2017-11-06T00:07:54.494Z,0
2017-11-06T00:08:56.153Z,0
2017-11-06T00:09:57.817Z,0
2017-11-06T00:10:59.548Z,0
2017-11-06T00:12:01.263Z,0
2017-11-06T00:13:03.042Z,0
2017-11-06T00:14:04.791Z,0
2017-11-06T00:15:06.528Z,0
2017-11-06T00:16:08.205Z,0
2017-11-06T00:17:09.967Z,0
2017-11-06T00:18:11.666Z,0
2017-11-06T00:19:13.389Z,0
2017-11-06T00:20:15.125Z,0
2017-11-06T00:21:16.876Z,0
2017-11-06T00:22:18.672Z,0
2017-11-06T00:23:20.411Z,0
2017-11-06T00:24:22.212Z,0
2017-11-06T00:25:23.847Z,0
2017-11-06T00:26:25.568Z,0
2017-11-06T00:27:27.286Z,0
2017-11-06T00:28:28.953Z,0
2017-11-06T00:29:30.701Z,0
2017-11-06T00:30:32.353Z,0
2017-11-06T00:31:34.012Z,0
2017-11-06T00:32:35.669Z,0
2017-11-06T00:33:37.435Z,0
2017-11-06T00:34:39.132Z,0
2017-11-06T00:35:40.797Z,0
2017-11-06T00:36:42.518Z,0
2017-11-06T00:37:44.262Z,0
2017-11-06T00:38:46.003Z,0
2017-11-06T00:39:47.730Z,0
2017-11-06T00:40:49.464Z,0
2017-11-06T00:41:51.148Z,0
2017-11-06T00:42:52.873Z,0
2017-11-06T00:43:54.614Z,0
2017-11-06T00:44:56.297Z,0
2017-11-06T00:45:57.940Z,0
2017-11-06T00:46:59.678Z,0
2017-11-06T00:48:01.421Z,0
2017-11-06T00:49:03.215Z,0
2017-11-06T00:50:04.984Z,0
2017-11-06T00:51:06.701Z,0
2017-11-06T00:52:08.370Z,0
2017-11-06T00:53:10.053Z,0
2017-11-06T00:54:11.854Z,0
2017-11-06T00:55:13.476Z,0
2017-11-06T00:56:15.186Z,0
2017-11-06T00:57:16.892Z,0
2017-11-06T00:58:18.588Z,0
2017-11-06T00:59:20.363Z,0
2017-11-06T01:00:22.030Z,0
2017-11-06T01:01:23.731Z,0
2017-11-06T01:02:25.383Z,0
2017-11-06T01:03:27.113Z,0
2017-11-06T01:04:28.810Z,0
2017-11-06T01:05:30.596Z,0
2017-11-06T01:06:32.352Z,0
2017-11-06T01:07:34.097Z,0
2017-11-06T01:08:35.883Z,0
2017-11-06T01:09:37.577Z,0
2017-11-06T01:10:39.331Z,0
2017-11-06T01:11:41.029Z,0
2017-11-06T01:12:42.732Z,0
2017-11-06T01:13:44.391Z,0
2017-11-06T01:14:46.122Z,0
2017-11-06T01:15:47.819Z,0
2017-11-06T01:16:49.538Z,0
2017-11-06T01:17:51.289Z,0
2017-11-06T01:18:53.032Z,0
2017-11-06T01:19:54.807Z,0
2017-11-06T01:20:56.543Z,0
2017-11-06T01:21:58.285Z,0
2017-11-06T01:23:00.043Z,0
2017-11-06T01:24:01.771Z,0
2017-11-06T01:25:03.472Z,0
2017-11-06T01:26:05.207Z,0
2017-11-06T01:27:06.936Z,0
2017-11-06T01:28:08.705Z,0
2017-11-06T01:29:10.362Z,0
2017-11-06T01:30:12.003Z,0
2017-11-06T01:31:13.745Z,0
2017-11-06T01:32:15.441Z,0
2017-11-06T01:33:17.149Z,0
2017-11-06T01:34:18.994Z,0
2017-11-06T01:35:20.718Z,0
2017-11-06T01:36:22.436Z,0
2017-11-06T01:37:24.150Z,0
2017-11-06T01:38:26.000Z,0
2017-11-06T01:39:27.711Z,0
2017-11-06T01:40:29.466Z,0
2017-11-06T01:41:31.174Z,0
2017-11-06T01:42:32.833Z,0
2017-11-06T01:43:34.578Z,0
2017-11-06T01:44:36.342Z,0
2017-11-06T01:45:38.061Z,0
2017-11-06T01:46:39.818Z,0
2017-11-06T01:47:41.489Z,0
2017-11-06T01:48:43.147Z,0
2017-11-06T01:49:44.813Z,0
2017-11-06T01:50:46.581Z,0
2017-11-06T01:51:48.329Z,0
2017-11-06T01:52:50.008Z,0
2017-11-06T01:53:51.722Z,0
2017-11-06T01:54:53.513Z,0
2017-11-06T01:55:55.410Z,0
2017-11-06T01:56:57.148Z,0
2017-11-06T01:57:58.864Z,0
2017-11-06T01:59:00.556Z,0
2017-11-06T02:00:02.360Z,0
2017-11-06T02:01:04.125Z,0
2017-11-06T02:02:05.908Z,0
2017-11-06T02:03:08.401Z,0
2017-11-06T02:04:10.066Z,0
2017-11-06T02:05:11.831Z,0
2017-11-06T02:06:13.512Z,0
2017-11-06T02:07:15.242Z,0
2017-11-06T02:08:16.971Z,0
2017-11-06T02:09:18.703Z,0
2017-11-06T02:10:20.429Z,0
2017-11-06T02:11:22.111Z,0
2017-11-06T02:12:23.868Z,0
2017-11-06T02:13:25.540Z,0
2017-11-06T02:14:27.226Z,0
2017-11-06T02:15:28.974Z,0
2017-11-06T02:16:30.717Z,0
2017-11-06T02:17:32.467Z,0
2017-11-06T02:18:34.217Z,0
2017-11-06T02:19:35.964Z,0
2017-11-06T02:20:37.801Z,0
2017-11-06T02:21:39.520Z,0
2017-11-06T02:22:41.290Z,0
2017-11-06T02:23:43.137Z,0
2017-11-06T02:24:44.991Z,0
2017-11-06T02:25:46.732Z,0
2017-11-06T02:26:48.533Z,0
2017-11-06T02:27:50.256Z,0
2017-11-06T02:28:51.960Z,0
2017-11-06T02:29:53.727Z,0
2017-11-06T02:30:55.528Z,0
2017-11-06T02:31:57.288Z,0
2017-11-06T02:32:59.027Z,0
2017-11-06T02:34:00.750Z,0
2017-11-06T02:35:02.508Z,0
2017-11-06T02:36:04.278Z,0
2017-11-06T02:37:06.135Z,0
2017-11-06T02:38:08.077Z,0
2017-11-06T02:39:09.797Z,0
2017-11-06T02:40:11.652Z,0
2017-11-06T02:41:13.434Z,0
2017-11-06T02:42:15.173Z,0
2017-11-06T02:43:16.901Z,0
2017-11-06T02:44:18.611Z,0
2017-11-06T02:45:20.249Z,0
2017-11-06T02:46:21.976Z,0
2017-11-06T02:47:23.684Z,0
2017-11-06T02:48:25.477Z,0
2017-11-06T02:49:27.294Z,0
2017-11-06T02:50:28.981Z,0
2017-11-06T02:51:30.726Z,0
2017-11-06T02:52:32.444Z,0
2017-11-06T02:53:34.201Z,0
2017-11-06T02:54:35.919Z,0
2017-11-06T02:55:37.619Z,0
2017-11-06T02:56:39.330Z,0
2017-11-06T02:57:41.035Z,0
2017-11-06T02:58:42.721Z,0
2017-11-06T02:59:44.543Z,0
2017-11-06T03:00:46.235Z,0
2017-11-06T03:01:47.998Z,0
2017-11-06T03:02:49.765Z,0
2017-11-06T03:03:51.525Z,0
2017-11-06T03:04:53.252Z,0
2017-11-06T03:05:55.038Z,0
2017-11-06T03:06:56.887Z,0
2017-11-06T03:07:58.572Z,0
2017-11-06T03:09:00.353Z,0
2017-11-06T03:10:02.028Z,0
2017-11-06T03:11:03.737Z,0
2017-11-06T03:12:05.458Z,0
2017-11-06T03:13:07.208Z,0
2017-11-06T03:14:09.042Z,0
2017-11-06T03:15:10.735Z,0
2017-11-06T03:16:12.518Z,0
2017-11-06T03:17:14.308Z,0
2017-11-06T03:18:16.005Z,0
2017-11-06T03:19:17.747Z,0
2017-11-06T03:20:19.585Z,0
2017-11-06T03:21:21.400Z,0
2017-11-06T03:22:23.137Z,0
2017-11-06T03:23:24.836Z,0
2017-11-06T03:24:26.532Z,0
2017-11-06T03:25:28.218Z,0
2017-11-06T03:26:29.887Z,0
2017-11-06T03:27:31.628Z,0
2017-11-06T03:28:33.367Z,0
2017-11-06T03:29:35.097Z,0
2017-11-06T03:30:36.857Z,0
2017-11-06T03:31:38.589Z,0
2017-11-06T03:32:40.328Z,0
2017-11-06T03:33:42.058Z,0
2017-11-06T03:34:43.915Z,0
2017-11-06T03:35:45.735Z,0
2017-11-06T03:36:47.526Z,0
2017-11-06T03:37:49.287Z,0
2017-11-06T03:38:51.072Z,0
2017-11-06T03:39:52.852Z,0
2017-11-06T03:40:54.719Z,0
2017-11-06T03:41:56.512Z,0
2017-11-06T03:42:58.279Z,0
2017-11-06T03:44:00.026Z,0
2017-11-06T03:45:01.771Z,0
2017-11-06T03:46:03.577Z,0
2017-11-06T03:47:05.359Z,0
2017-11-06T03:48:07.152Z,0
2017-11-06T03:49:08.891Z,0
2017-11-06T03:50:10.603Z,0
2017-11-06T03:51:12.356Z,0
2017-11-06T03:52:14.120Z,0
2017-11-06T03:53:16.046Z,0
2017-11-06T03:54:17.748Z,0
2017-11-06T03:55:19.485Z,0
2017-11-06T03:56:21.201Z,0
2017-11-06T03:57:22.965Z,0
2017-11-06T03:58:24.769Z,0
2017-11-06T03:59:26.537Z,0
2017-11-06T04:00:28.259Z,0
2017-11-06T04:01:30.055Z,0
2017-11-06T04:02:32.660Z,0
2017-11-06T04:03:34.345Z,0
2017-11-06T04:04:36.076Z,0
2017-11-06T04:05:37.956Z,0
2017-11-06T04:06:39.777Z,0
2017-11-06T04:07:41.536Z,0
2017-11-06T04:08:43.293Z,0
2017-11-06T04:09:44.966Z,0
2017-11-06T04:10:46.832Z,0
2017-11-06T04:11:48.592Z,0
2017-11-06T04:12:50.297Z,0
2017-11-06T04:13:52.074Z,0
2017-11-06T04:14:53.884Z,0
2017-11-06T04:15:55.585Z,0
2017-11-06T04:16:57.456Z,0
2017-11-06T04:17:59.201Z,0
2017-11-06T04:19:01.065Z,0
2017-11-06T04:20:02.841Z,0
2017-11-06T04:21:04.621Z,0
2017-11-06T04:22:06.356Z,0
2017-11-06T04:23:08.141Z,0
2017-11-06T04:24:09.865Z,0
2017-11-06T04:25:11.673Z,0
2017-11-06T04:26:13.439Z,0
2017-11-06T04:27:15.319Z,0
2017-11-06T04:28:17.075Z,0
2017-11-06T04:29:18.838Z,0
2017-11-06T04:30:20.618Z,0
2017-11-06T04:31:22.418Z,0
2017-11-06T04:32:24.117Z,0
2017-11-06T04:33:25.823Z,0
2017-11-06T04:34:27.515Z,0
2017-11-06T04:35:29.220Z,0
2017-11-06T04:36:30.943Z,0
2017-11-06T04:37:32.657Z,0
2017-11-06T04:38:34.407Z,0
2017-11-06T04:39:36.185Z,0
2017-11-06T04:40:38.050Z,0
2017-11-06T04:41:39.777Z,0
2017-11-06T04:42:41.574Z,0
2017-11-06T04:43:43.332Z,0
2017-11-06T04:44:45.058Z,0
2017-11-06T04:45:46.791Z,0
2017-11-06T04:46:48.615Z,0
2017-11-06T04:47:50.457Z,0
2017-11-06T04:48:52.191Z,0
2017-11-06T04:49:53.979Z,0
2017-11-06T04:50:55.652Z,0
2017-11-06T04:51:57.353Z,0
2017-11-06T04:52:59.150Z,0
2017-11-06T04:54:00.982Z,0
2017-11-06T04:55:02.813Z,0
2017-11-06T04:56:04.577Z,0
2017-11-06T04:57:06.283Z,0
2017-11-06T04:58:08.038Z,0
2017-11-06T04:59:09.777Z,0
2017-11-06T05:00:11.502Z,0
2017-11-06T05:01:13.279Z,0
2017-11-06T05:02:15.044Z,0
2017-11-06T05:03:16.765Z,0
2017-11-06T05:04:18.642Z,0
2017-11-06T05:05:20.413Z,0
2017-11-06T05:06:22.269Z,0
2017-11-06T05:07:24.141Z,0
2017-11-06T05:08:25.856Z,0
2017-11-06T05:09:27.752Z,0
2017-11-06T05:10:29.492Z,0
2017-11-06T05:11:31.238Z,0
2017-11-06T05:12:33.111Z,0
2017-11-06T05:13:34.965Z,0
2017-11-06T05:14:36.839Z,0
2017-11-06T05:15:38.556Z,0
2017-11-06T05:16:40.349Z,0
2017-11-06T05:17:41.903Z,0
2017-11-06T05:18:43.474Z,0
2017-11-06T05:19:45.060Z,0
2017-11-06T05:20:46.657Z,0
2017-11-06T05:21:48.266Z,0
2017-11-06T05:22:50.029Z,0
2017-11-06T05:23:51.797Z,0
2017-11-06T05:24:53.598Z,0
2017-11-06T05:25:55.341Z,0
2017-11-06T05:26:57.174Z,0
2017-11-06T05:27:58.911Z,0
2017-11-06T05:29:00.512Z,0
2017-11-06T05:30:02.207Z,0
2017-11-06T05:31:04.125Z,0
2017-11-06T05:32:05.976Z,0
2017-11-06T05:33:07.896Z,0
2017-11-06T05:34:09.740Z,0
2017-11-06T05:35:11.721Z,0
2017-11-06T05:36:13.504Z,0
2017-11-06T05:37:15.821Z,0
2017-11-06T05:38:17.454Z,0
2017-11-06T05:39:19.005Z,0
2017-11-06T05:40:20.591Z,0
2017-11-06T05:41:22.364Z,0
2017-11-06T05:42:24.006Z,0
2017-11-06T05:43:25.535Z,0
2017-11-06T05:44:27.450Z,0
2017-11-06T05:45:29.024Z,0
2017-11-06T05:46:30.521Z,0
2017-11-06T05:47:32.061Z,0
2017-11-06T05:48:33.641Z,0
2017-11-06T05:49:35.182Z,0
2017-11-06T05:50:36.840Z,0
2017-11-06T05:51:38.458Z,0
2017-11-06T05:52:39.992Z,0
2017-11-06T05:53:41.531Z,0
2017-11-06T05:54:43.044Z,0
2017-11-06T05:55:44.548Z,0
2017-11-06T05:56:46.017Z,0
2017-11-06T05:57:47.523Z,0
2017-11-06T05:58:49.042Z,0
2017-11-06T05:59:50.522Z,0
2017-11-06T06:00:52.014Z,0
2017-11-06T06:01:53.498Z,0
2017-11-06T06:02:55.057Z,0
2017-11-06T06:03:56.554Z,0
2017-11-06T06:04:58.017Z,0
2017-11-06T06:05:59.537Z,0
2017-11-06T06:07:00.984Z,0
2017-11-06T06:08:02.513Z,0
2017-11-06T06:09:03.995Z,0
2017-11-06T06:10:05.535Z,0
2017-11-06T06:11:07.021Z,0
2017-11-06T06:12:08.563Z,0
2017-11-06T06:13:10.015Z,0
2017-11-06T06:14:11.517Z,0
2017-11-06T06:15:13.009Z,0
2017-11-06T06:16:14.531Z,4
2017-11-06T06:17:16.606Z,4
2017-11-06T06:18:18.908Z,0
2017-11-06T06:19:20.367Z,4
2017-11-06T06:20:21.877Z,4
2017-11-06T06:21:23.413Z,4
2017-11-06T06:22:24.969Z,8
2017-11-06T06:23:26.436Z,4
2017-11-06T06:24:27.945Z,8
2017-11-06T06:25:29.445Z,8
2017-11-06T06:26:30.927Z,8
2017-11-06T06:27:32.462Z,12
2017-11-06T06:28:34.023Z,12
2017-11-06T06:29:35.492Z,12
2017-11-06T06:30:37.009Z,16
2017-11-06T06:31:38.612Z,16
2017-11-06T06:32:40.173Z,16
2017-11-06T06:33:41.706Z,16
2017-11-06T06:34:43.240Z,20
2017-11-06T06:35:44.739Z,20
2017-11-06T06:36:46.312Z,24
2017-11-06T06:37:47.905Z,24
2017-11-06T06:38:49.760Z,32
2017-11-06T06:39:51.243Z,36
2017-11-06T06:40:52.738Z,40
2017-11-06T06:41:54.248Z,44
2017-11-06T06:42:55.763Z,44
2017-11-06T06:43:57.247Z,44
2017-11-06T06:44:58.715Z,48
2017-11-06T06:46:00.296Z,52
2017-11-06T06:47:01.853Z,56
2017-11-06T06:48:03.372Z,60
2017-11-06T06:49:04.931Z,64
2017-11-06T06:50:06.463Z,68
2017-11-06T06:51:07.996Z,68
2017-11-06T06:52:09.564Z,76
2017-11-06T06:53:11.782Z,80
2017-11-06T06:54:13.343Z,84
2017-11-06T06:55:14.991Z,84
2017-11-06T06:56:16.621Z,88
2017-11-06T06:57:18.095Z,96
2017-11-06T06:58:19.594Z,108
2017-11-06T06:59:21.463Z,120
2017-11-06T07:00:22.987Z,124
2017-11-06T07:01:24.499Z,132
2017-11-06T07:02:26.066Z,140
2017-11-06T07:03:28.184Z,144
2017-11-06T07:04:29.691Z,156
2017-11-06T07:05:31.195Z,160
2017-11-06T07:06:32.662Z,164
2017-11-06T07:07:34.124Z,172
2017-11-06T07:08:35.670Z,180
2017-11-06T07:09:37.154Z,188
2017-11-06T07:10:38.616Z,188
2017-11-06T07:11:40.131Z,188
2017-11-06T07:12:41.599Z,188
2017-11-06T07:13:43.051Z,192
2017-11-06T07:14:44.553Z,196
2017-11-06T07:15:46.068Z,200
2017-11-06T07:16:47.590Z,204
2017-11-06T07:17:49.118Z,208
2017-11-06T07:18:50.635Z,212
2017-11-06T07:19:52.330Z,208
2017-11-06T07:20:53.853Z,208
2017-11-06T07:21:56.146Z,212
2017-11-06T07:22:57.715Z,212
2017-11-06T07:23:59.311Z,212
2017-11-06T07:25:00.882Z,216
2017-11-06T07:26:02.495Z,224
2017-11-06T07:27:03.994Z,240
2017-11-06T07:28:05.485Z,248
2017-11-06T07:29:07.118Z,252
2017-11-06T07:30:08.721Z,260
2017-11-06T07:31:10.380Z,268
2017-11-06T07:32:12.010Z,272
2017-11-06T07:33:13.670Z,280
2017-11-06T07:34:15.242Z,288
2017-11-06T07:35:16.843Z,304
2017-11-06T07:36:18.435Z,320
2017-11-06T07:37:20.065Z,328
2017-11-06T07:38:21.668Z,340
2017-11-06T07:39:23.206Z,352
2017-11-06T07:40:24.745Z,360
2017-11-06T07:41:26.333Z,368
2017-11-06T07:42:27.869Z,372
2017-11-06T07:43:29.377Z,368
2017-11-06T07:44:30.917Z,376
2017-11-06T07:45:32.435Z,384
2017-11-06T07:46:33.973Z,388
2017-11-06T07:47:35.530Z,400
2017-11-06T07:48:37.477Z,404
2017-11-06T07:49:39.128Z,408
2017-11-06T07:50:40.776Z,412
2017-11-06T07:51:42.344Z,408
2017-11-06T07:52:43.868Z,412
2017-11-06T07:53:45.399Z,420
2017-11-06T07:54:47.010Z,428
2017-11-06T07:55:48.522Z,436
2017-11-06T07:56:50.105Z,444
2017-11-06T07:57:51.621Z,444
2017-11-06T07:58:53.098Z,452
2017-11-06T07:59:54.610Z,464
2017-11-06T08:00:56.099Z,464
2017-11-06T08:01:57.823Z,468
2017-11-06T08:02:59.315Z,460
2017-11-06T08:04:00.815Z,456
2017-11-06T08:05:02.307Z,448
2017-11-06T08:06:03.854Z,444
2017-11-06T08:07:05.495Z,452
2017-11-06T08:08:07.092Z,460
2017-11-06T08:09:08.639Z,460
2017-11-06T08:10:10.269Z,464
2017-11-06T08:11:11.869Z,468
2017-11-06T08:12:13.522Z,472
2017-11-06T08:13:15.072Z,484
2017-11-06T08:14:16.637Z,500
2017-11-06T08:15:18.162Z,512
2017-11-06T08:16:19.760Z,524
2017-11-06T08:17:21.400Z,540
2017-11-06T08:18:23.009Z,540
2017-11-06T08:19:24.558Z,548
2017-11-06T08:20:26.129Z,568
2017-11-06T08:21:27.627Z,600
2017-11-06T08:22:29.157Z,636
2017-11-06T08:23:30.723Z,640
2017-11-06T08:24:32.228Z,640
2017-11-06T08:25:33.761Z,656
2017-11-06T08:26:35.317Z,644
2017-11-06T08:27:36.939Z,632
2017-11-06T08:28:38.482Z,636
2017-11-06T08:29:39.997Z,636
2017-11-06T08:30:41.527Z,620
2017-11-06T08:31:43.021Z,600
2017-11-06T08:33:46.075Z,580
2017-11-06T08:34:47.630Z,576
2017-11-06T08:35:49.214Z,564
2017-11-06T08:36:50.773Z,560
2017-11-06T08:37:53.937Z,560
2017-11-06T08:38:55.508Z,564
2017-11-06T08:39:57.048Z,564
2017-11-06T08:40:58.614Z,560
2017-11-06T08:42:00.143Z,564
2017-11-06T08:43:01.684Z,564
2017-11-06T08:44:03.194Z,568
2017-11-06T08:45:04.702Z,576
2017-11-06T08:46:06.427Z,580
2017-11-06T08:47:07.947Z,580
2017-11-06T08:48:09.467Z,588
2017-11-06T08:49:10.988Z,592
2017-11-06T08:50:12.576Z,608
2017-11-06T08:51:14.578Z,604
2017-11-06T08:52:16.236Z,600
2017-11-06T08:53:17.761Z,588
2017-11-06T08:54:19.247Z,592
2017-11-06T08:55:20.868Z,596
2017-11-06T08:56:22.398Z,612
2017-11-06T08:57:23.946Z,624
2017-11-06T08:58:25.498Z,632
2017-11-06T08:59:26.990Z,632
2017-11-06T09:00:28.571Z,632
2017-11-06T09:01:30.119Z,640
2017-11-06T09:02:31.687Z,640
2017-11-06T09:03:33.195Z,644
2017-11-06T09:04:34.717Z,648
2017-11-06T09:05:36.241Z,652
2017-11-06T09:06:38.295Z,652
2017-11-06T09:07:39.865Z,656
2017-11-06T09:08:41.468Z,656
2017-11-06T09:09:43.007Z,660
2017-11-06T09:10:44.936Z,660
2017-11-06T09:11:46.391Z,664
2017-11-06T09:12:47.878Z,664
2017-11-06T09:13:49.369Z,664
2017-11-06T09:14:50.883Z,664
2017-11-06T09:15:52.439Z,668
2017-11-06T09:16:53.952Z,672
2017-11-06T09:17:55.512Z,672
2017-11-06T09:18:57.041Z,672
2017-11-06T09:19:59.247Z,672
2017-11-06T09:21:00.857Z,676
2017-11-06T09:22:02.388Z,676
2017-11-06T09:23:03.979Z,680
2017-11-06T09:24:05.540Z,680
2017-11-06T09:25:07.036Z,680
2017-11-06T09:26:08.559Z,684
2017-11-06T09:27:10.082Z,688
2017-11-06T09:28:11.589Z,688
2017-11-06T09:29:13.076Z,688
2017-11-06T09:30:14.594Z,688
2017-11-06T09:31:17.349Z,688
2017-11-06T09:32:18.858Z,692
2017-11-06T09:33:20.398Z,692
2017-11-06T09:34:21.916Z,696
2017-11-06T09:35:23.451Z,692
2017-11-06T09:36:24.962Z,696
2017-11-06T09:37:26.488Z,700
2017-11-06T09:38:28.002Z,700
2017-11-06T09:39:29.567Z,700
2017-11-06T09:40:31.104Z,704
2017-11-06T09:41:32.602Z,704
2017-11-06T09:42:34.143Z,704
2017-11-06T09:43:35.650Z,704
2017-11-06T09:44:37.173Z,708
2017-11-06T09:45:38.676Z,708
2017-11-06T09:46:40.196Z,708
2017-11-06T09:47:41.719Z,708
2017-11-06T09:48:43.225Z,712
2017-11-06T09:49:44.779Z,712
2017-11-06T09:50:46.253Z,716
2017-11-06T09:51:47.759Z,712
2017-11-06T09:52:49.283Z,716
2017-11-06T09:53:50.813Z,716
2017-11-06T09:54:52.295Z,720
2017-11-06T09:55:54.743Z,720
2017-11-06T09:56:56.545Z,720
2017-11-06T09:57:58.057Z,724
2017-11-06T09:58:59.552Z,724
2017-11-06T10:00:01.077Z,724
2017-11-06T10:01:02.532Z,724
2017-11-06T10:02:04.071Z,728
2017-11-06T10:03:05.533Z,728
2017-11-06T10:04:07.042Z,728
2017-11-06T10:05:08.543Z,728
2017-11-06T10:06:09.993Z,732
2017-11-06T10:07:11.458Z,732
2017-11-06T10:08:12.956Z,732
2017-11-06T10:09:14.396Z,732
2017-11-06T10:10:15.901Z,736
2017-11-06T10:11:17.616Z,732
2017-11-06T10:12:19.081Z,736
2017-11-06T10:13:20.574Z,736
2017-11-06T10:14:22.024Z,740
2017-11-06T10:15:23.490Z,736
2017-11-06T10:16:25.060Z,740
2017-11-06T10:17:26.533Z,740
2017-11-06T10:18:28.017Z,740
2017-11-06T10:19:29.500Z,740
2017-11-06T10:20:30.967Z,740
2017-11-06T10:21:32.432Z,740
2017-11-06T10:22:33.918Z,740
2017-11-06T10:23:35.457Z,744
2017-11-06T10:24:36.940Z,740
2017-11-06T10:25:38.399Z,744
2017-11-06T10:26:39.883Z,748
2017-11-06T10:27:41.609Z,748
2017-11-06T10:28:43.059Z,748
2017-11-06T10:29:44.533Z,752
2017-11-06T10:30:46.044Z,752
2017-11-06T10:31:47.487Z,748
2017-11-06T10:32:48.945Z,752
2017-11-06T10:33:50.452Z,752
2017-11-06T10:34:51.963Z,756
2017-11-06T10:35:53.440Z,756
2017-11-06T10:36:54.919Z,752
2017-11-06T10:37:56.391Z,756
2017-11-06T10:38:57.893Z,756
2017-11-06T10:39:59.365Z,760
2017-11-06T10:41:00.873Z,756
2017-11-06T10:42:02.400Z,760
2017-11-06T10:43:04.074Z,764
2017-11-06T10:44:05.632Z,760
2017-11-06T10:45:07.105Z,760
2017-11-06T10:46:08.819Z,764
2017-11-06T10:47:10.335Z,764
2017-11-06T10:48:11.790Z,768
2017-11-06T10:49:13.272Z,768
2017-11-06T10:50:14.750Z,768
2017-11-06T10:51:16.277Z,772
2017-11-06T10:52:17.777Z,768
2017-11-06T10:53:19.285Z,772
2017-11-06T10:54:20.805Z,772
2017-11-06T10:55:22.318Z,776
2017-11-06T10:56:23.835Z,772
2017-11-06T10:57:25.343Z,776
2017-11-06T10:58:26.821Z,776
2017-11-06T10:59:28.341Z,776
2017-11-06T11:00:29.823Z,776
2017-11-06T11:01:31.329Z,780
2017-11-06T11:02:32.878Z,780
2017-11-06T11:03:34.362Z,784
2017-11-06T11:04:35.910Z,784
2017-11-06T11:05:37.463Z,784
2017-11-06T11:06:38.964Z,788
2017-11-06T11:07:40.465Z,788
2017-11-06T11:08:42.012Z,788
2017-11-06T11:09:43.505Z,792
2017-11-06T11:10:44.999Z,792
2017-11-06T11:11:46.543Z,792
2017-11-06T11:12:48.131Z,796
2017-11-06T11:13:49.677Z,796
2017-11-06T11:14:51.209Z,800
2017-11-06T11:15:52.695Z,804
2017-11-06T11:16:54.187Z,804
2017-11-06T11:17:55.670Z,808
2017-11-06T11:18:57.192Z,812
2017-11-06T11:19:58.723Z,812
2017-11-06T11:21:00.258Z,816
2017-11-06T11:22:01.793Z,820
2017-11-06T11:23:03.344Z,824
2017-11-06T11:24:04.869Z,824
2017-11-06T11:25:06.431Z,824
2017-11-06T11:26:07.902Z,824
2017-11-06T11:27:09.417Z,832
2017-11-06T11:28:10.979Z,836
2017-11-06T11:29:12.535Z,840
2017-11-06T11:30:14.020Z,840
2017-11-06T11:31:15.571Z,844
2017-11-06T11:32:17.087Z,844
2017-11-06T11:33:18.628Z,852
2017-11-06T11:34:20.201Z,856
2017-11-06T11:35:21.747Z,856
2017-11-06T11:36:23.247Z,864
2017-11-06T11:37:24.793Z,872
2017-11-06T11:38:27.318Z,880
2017-11-06T11:39:28.796Z,892
2017-11-06T11:40:30.328Z,900
2017-11-06T11:41:31.860Z,904
2017-11-06T11:42:33.371Z,908
2017-11-06T11:43:34.873Z,912
2017-11-06T11:44:36.440Z,912
2017-11-06T11:45:38.029Z,836
2017-11-06T11:46:39.624Z,800
2017-11-06T11:47:41.235Z,804
2017-11-06T11:48:42.715Z,920
2017-11-06T11:49:44.194Z,928
2017-11-06T11:50:45.714Z,928
2017-11-06T11:51:47.273Z,936
2017-11-06T11:52:48.815Z,840
2017-11-06T11:53:50.302Z,812
2017-11-06T11:54:51.768Z,812
2017-11-06T11:55:53.249Z,836
2017-11-06T11:56:54.747Z,940
2017-11-06T11:57:56.226Z,956
2017-11-06T11:58:57.888Z,956
2017-11-06T11:59:59.423Z,904
2017-11-06T12:01:00.883Z,896
2017-11-06T12:02:02.416Z,888
2017-11-06T12:03:03.957Z,884
2017-11-06T12:04:05.423Z,776
2017-11-06T12:05:06.905Z,784
2017-11-06T12:06:08.437Z,900
2017-11-06T12:07:09.909Z,840
2017-11-06T12:08:11.412Z,796
2017-11-06T12:09:12.938Z,812
2017-11-06T12:10:14.445Z,820
2017-11-06T12:11:16.364Z,820
2017-11-06T12:12:17.895Z,812
2017-11-06T12:13:19.411Z,808
2017-11-06T12:14:20.913Z,820
2017-11-06T12:15:22.380Z,976
2017-11-06T12:16:24.510Z,984
2017-11-06T12:17:26.770Z,992
2017-11-06T12:18:28.349Z,880
2017-11-06T12:19:29.941Z,880
2017-11-06T12:20:31.495Z,896
2017-11-06T12:21:32.966Z,904
2017-11-06T12:22:34.466Z,904
2017-11-06T12:23:36.112Z,912
2017-11-06T12:24:37.569Z,1048
2017-11-06T12:25:39.112Z,956
2017-11-06T12:26:40.675Z,980
2017-11-06T12:27:42.195Z,992
2017-11-06T12:28:43.775Z,960
2017-11-06T12:29:45.420Z,948
2017-11-06T12:30:46.915Z,952
2017-11-06T12:31:48.411Z,960
2017-11-06T12:32:49.973Z,956
2017-11-06T12:33:51.515Z,928
2017-11-06T12:34:53.026Z,916
2017-11-06T12:35:54.559Z,916
2017-11-06T12:36:56.375Z,912
2017-11-06T12:37:58.245Z,908
2017-11-06T12:39:00.926Z,904
2017-11-06T12:40:02.317Z,912
2017-11-06T12:41:04.335Z,924
2017-11-06T12:42:05.885Z,944
2017-11-06T12:43:07.547Z,1048
2017-11-06T12:44:09.031Z,1104
2017-11-06T12:45:10.584Z,1024
2017-11-06T12:46:12.124Z,896
2017-11-06T12:47:13.671Z,900
2017-11-06T12:48:15.268Z,904
2017-11-06T12:49:16.843Z,940
2017-11-06T12:50:18.375Z,988
2017-11-06T12:51:19.944Z,976
2017-11-06T12:52:21.509Z,968
2017-11-06T12:53:23.039Z,960
2017-11-06T12:54:25.294Z,980
2017-11-06T12:55:26.820Z,936
2017-11-06T12:56:28.363Z,952
2017-11-06T12:57:29.921Z,976
2017-11-06T12:58:31.429Z,1004
2017-11-06T12:59:32.921Z,1016
2017-11-06T13:00:34.428Z,1020
2017-11-06T13:01:36.008Z,1020
2017-11-06T13:02:37.617Z,1024
2017-11-06T13:03:39.147Z,1052
2017-11-06T13:04:40.654Z,1076
2017-11-06T13:05:42.165Z,1080
2017-11-06T13:06:43.732Z,1112
2017-11-06T13:07:45.345Z,1164
2017-11-06T13:08:46.905Z,1248
2017-11-06T13:09:48.527Z,1268
2017-11-06T13:10:50.073Z,1316
2017-11-06T13:11:51.607Z,1324
2017-11-06T13:12:53.176Z,1328
2017-11-06T13:13:54.965Z,1300
2017-11-06T13:14:56.633Z,1220
2017-11-06T13:15:58.226Z,1204
2017-11-06T13:16:59.773Z,1176
2017-11-06T13:18:01.278Z,1196
2017-11-06T13:19:02.874Z,1208
2017-11-06T13:20:04.528Z,1212
2017-11-06T13:21:06.090Z,1232
2017-11-06T13:22:07.652Z,1288
2017-11-06T13:23:09.197Z,1308
2017-11-06T13:24:10.745Z,1308
2017-11-06T13:25:12.292Z,1332
2017-11-06T13:26:13.830Z,1352
2017-11-06T13:27:15.355Z,1384
2017-11-06T13:28:16.857Z,1388
2017-11-06T13:29:18.380Z,1376
2017-11-06T13:30:19.942Z,1340
2017-11-06T13:31:22.453Z,1284
2017-11-06T13:32:23.983Z,1216
2017-11-06T13:33:25.521Z,1164
2017-11-06T13:34:27.051Z,1156
2017-11-06T13:35:28.567Z,1156
2017-11-06T13:36:30.112Z,1176
2017-11-06T13:37:31.653Z,1164
2017-11-06T13:38:33.144Z,1200
2017-11-06T13:39:34.664Z,1224
2017-11-06T13:40:36.232Z,1300
2017-11-06T13:41:37.769Z,1320
2017-11-06T13:42:39.242Z,1328
2017-11-06T13:43:40.787Z,1320
2017-11-06T13:44:42.328Z,1312
2017-11-06T13:45:43.807Z,1300
2017-11-06T13:46:45.331Z,1296
2017-11-06T13:47:46.952Z,1316
2017-11-06T13:48:48.447Z,1344
2017-11-06T13:49:49.898Z,1352
2017-11-06T13:50:51.379Z,1356
2017-11-06T13:51:53.011Z,1300
2017-11-06T13:52:54.606Z,1436
2017-11-06T13:53:56.148Z,1440
2017-11-06T13:54:57.932Z,1416
2017-11-06T13:55:59.529Z,1384
2017-11-06T13:57:01.091Z,1376
2017-11-06T13:58:02.652Z,1380
2017-11-06T13:59:04.228Z,1392
2017-11-06T14:00:05.734Z,1440
2017-11-06T14:01:07.500Z,1524
2017-11-06T14:02:08.991Z,1640
2017-11-06T14:03:10.541Z,1732
2017-11-06T14:04:12.086Z,1784
2017-11-06T14:05:13.676Z,1832
2017-11-06T14:06:15.278Z,1860
2017-11-06T14:07:16.987Z,1852
2017-11-06T14:08:18.521Z,1828
2017-11-06T14:09:20.120Z,1784
2017-11-06T14:10:21.767Z,1740
2017-11-06T14:11:23.452Z,1712
2017-11-06T14:12:25.056Z,1688
2017-11-06T14:13:26.852Z,1684
2017-11-06T14:14:28.642Z,1692
2017-11-06T14:15:30.142Z,1704
2017-11-06T14:16:31.609Z,1704
2017-11-06T14:17:33.106Z,1696
2017-11-06T14:18:34.582Z,1672
2017-11-06T14:19:36.050Z,1632
2017-11-06T14:20:37.620Z,1592
2017-11-06T14:21:39.227Z,1560
2017-11-06T14:22:40.829Z,1516
2017-11-06T14:23:42.459Z,1468
2017-11-06T14:24:43.986Z,1424
2017-11-06T14:25:45.458Z,1384
2017-11-06T14:26:47.028Z,1344
2017-11-06T14:27:48.556Z,1308
2017-11-06T14:28:50.080Z,1272
2017-11-06T14:29:51.626Z,1252
2017-11-06T14:30:53.148Z,1244
2017-11-06T14:31:54.678Z,1244
2017-11-06T14:32:56.161Z,1252
2017-11-06T14:33:57.666Z,1268